PWSweather.com
Personal Weather Stations
Station Observations
AC5CV
Greenleaf Peninsula, Waco, TX 76710

Greenleaf PeninsulaWaco, TX 76710

Lat: 31.565, Lon: -97.198

Elevation: 570

Station Type: Ambient WS2080

http://johnchamber.dyndns.info/

High Low Average
Temperature 77.2°F25.1°C 73.6°F23.1°C 75.5°F24.2°C
Dew Point 74.7°F23.7°C 66.2°F19.0°C 71.8°F22.1°C
Winds 9.5 mph 15.3 kmh 1.8 mph 2.9 kmh 5.0 mph NE8.0 kmh NE
Wind Gusts 19.9 mph32.0 kmh 4.9 mph7.9 kmh 10.0 mph16.1 kmh
Humidity 97% 70% 89%
Pressure 29.37 in994.6 mb 29.31 in992.6 mb -
Precipitation 0.14 in3.6 mm - -
Hour Temp Dew Point Humidity Winds Wind Gusts Pressure Precip Precip Rate Daily Precip Total
12:00 AM 77.2°F25.1°C 67.0°F19.4°C 71% 4.8 mph NE7.7 kmh NE 9.8 mph15.8 kmh 29.34 in993.6 mb 0.00 in0.0 mm 0.00 in0.0 mm 0.00 in0.0 mm
12:05 AM 77.2°F25.1°C 67.0°F19.4°C 71% 3.5 mph ENE5.6 kmh ENE 7.4 mph11.9 kmh 29.34 in993.6 mb 0.00 in0.0 mm 0.00 in0.0 mm 0.00 in0.0 mm
12:10 AM 77.0°F25.0°C 66.9°F19.4°C 71% 3.1 mph ENE5.0 kmh ENE 9.8 mph15.8 kmh 29.34 in993.6 mb 0.00 in0.0 mm 0.00 in0.0 mm 0.00 in0.0 mm
12:15 AM 77.0°F25.0°C 66.9°F19.4°C 71% 4.0 mph NE6.4 kmh NE 7.4 mph11.9 kmh 29.34 in993.6 mb 0.00 in0.0 mm 0.00 in0.0 mm 0.00 in0.0 mm
12:20 AM 77.0°F25.0°C 66.9°F19.4°C 71% 4.1 mph NE6.6 kmh NE 9.8 mph15.8 kmh 29.34 in993.6 mb 0.00 in0.0 mm 0.00 in0.0 mm 0.00 in0.0 mm
12:25 AM 77.0°F25.0°C 66.7°F19.3°C 70% 4.9 mph ENE7.9 kmh ENE 9.8 mph15.8 kmh 29.34 in993.6 mb 0.00 in0.0 mm 0.00 in0.0 mm 0.00 in0.0 mm
12:30 AM 77.0°F25.0°C 66.4°F19.1°C 70% 3.5 mph ENE5.6 kmh ENE 9.8 mph15.8 kmh 29.34 in993.6 mb 0.00 in0.0 mm 0.00 in0.0 mm 0.00 in0.0 mm
12:35 AM 77.0°F25.0°C 66.4°F19.1°C 70% 4.7 mph ENE7.6 kmh ENE 9.8 mph15.8 kmh 29.34 in993.6 mb 0.00 in0.0 mm 0.00 in0.0 mm 0.00 in0.0 mm
12:40 AM 77.0°F25.0°C 66.4°F19.1°C 70% 4.4 mph E7.1 kmh E 7.4 mph11.9 kmh 29.34 in993.6 mb 0.00 in0.0 mm 0.00 in0.0 mm 0.00 in0.0 mm
12:45 AM 76.9°F24.9°C 66.5°F19.2°C 70% 3.3 mph NNE5.3 kmh NNE 7.4 mph11.9 kmh 29.34 in993.6 mb 0.00 in0.0 mm 0.00 in0.0 mm 0.00 in0.0 mm
12:50 AM 76.8°F24.9°C 66.5°F19.2°C 71% 4.7 mph NE7.6 kmh NE 12.3 mph19.8 kmh 29.34 in993.6 mb 0.00 in0.0 mm 0.00 in0.0 mm 0.00 in0.0 mm
12:55 AM 76.8°F24.9°C 66.7°F19.3°C 71% 2.7 mph NE4.3 kmh NE 4.9 mph7.9 kmh 29.34 in993.6 mb 0.00 in0.0 mm 0.00 in0.0 mm 0.00 in0.0 mm
01:00 AM 76.8°F24.9°C 66.7°F19.3°C 71% 3.5 mph N5.6 kmh N 9.8 mph15.8 kmh 29.33 in993.2 mb 0.00 in0.0 mm 0.00 in0.0 mm 0.00 in0.0 mm
01:05 AM 76.7°F24.8°C 66.6°F19.2°C 71% 3.2 mph NE5.1 kmh NE 9.8 mph15.8 kmh 29.33 in993.2 mb 0.00 in0.0 mm 0.00 in0.0 mm 0.00 in0.0 mm
01:10 AM 76.6°F24.8°C 66.5°F19.2°C 71% 1.9 mph NNE3.1 kmh NNE 4.9 mph7.9 kmh 29.34 in993.6 mb 0.00 in0.0 mm 0.00 in0.0 mm 0.00 in0.0 mm
01:15 AM 76.5°F24.7°C 66.4°F19.1°C 71% 2.2 mph NNE3.5 kmh NNE 9.8 mph15.8 kmh 29.34 in993.6 mb 0.00 in0.0 mm 0.00 in0.0 mm 0.00 in0.0 mm
01:20 AM 76.5°F24.7°C 66.4°F19.1°C 71% 2.1 mph NE3.4 kmh NE 4.9 mph7.9 kmh 29.33 in993.2 mb 0.00 in0.0 mm 0.00 in0.0 mm 0.00 in0.0 mm
01:25 AM 76.5°F24.7°C 66.4°F19.1°C 71% 3.0 mph NE4.8 kmh NE 7.4 mph11.9 kmh 29.34 in993.6 mb 0.00 in0.0 mm 0.00 in0.0 mm 0.00 in0.0 mm
01:30 AM 76.5°F24.7°C 66.4°F19.1°C 71% 4.4 mph NE7.1 kmh NE 7.4 mph11.9 kmh 29.34 in993.6 mb 0.00 in0.0 mm 0.00 in0.0 mm 0.00 in0.0 mm
01:35 AM 76.3°F24.6°C 66.2°F19.0°C 71% 3.6 mph NE5.8 kmh NE 9.8 mph15.8 kmh 29.33 in993.2 mb 0.00 in0.0 mm 0.00 in0.0 mm 0.00 in0.0 mm
01:40 AM 76.3°F24.6°C 66.2°F19.0°C 71% 4.9 mph NNE7.9 kmh NNE 9.8 mph15.8 kmh 29.33 in993.2 mb 0.00 in0.0 mm 0.00 in0.0 mm 0.00 in0.0 mm
01:45 AM 76.3°F24.6°C 66.2°F19.0°C 71% 3.2 mph NE5.1 kmh NE 9.8 mph15.8 kmh 29.33 in993.2 mb 0.00 in0.0 mm 0.00 in0.0 mm 0.00 in0.0 mm
01:50 AM 76.5°F24.7°C 66.6°F19.2°C 72% 4.3 mph NE6.9 kmh NE 7.4 mph11.9 kmh 29.33 in993.2 mb 0.00 in0.0 mm 0.00 in0.0 mm 0.00 in0.0 mm
01:55 AM 76.5°F24.7°C 66.8°F19.3°C 72% 4.3 mph NE6.9 kmh NE 9.8 mph15.8 kmh 29.33 in993.2 mb 0.00 in0.0 mm 0.00 in0.0 mm 0.00 in0.0 mm
02:00 AM 76.5°F24.7°C 66.8°F19.3°C 72% 6.0 mph ENE9.7 kmh ENE 9.8 mph15.8 kmh 29.33 in993.2 mb 0.00 in0.0 mm 0.00 in0.0 mm 0.00 in0.0 mm
02:05 AM 76.5°F24.7°C 66.8°F19.3°C 72% 4.9 mph NE7.9 kmh NE 12.3 mph19.8 kmh 29.33 in993.2 mb 0.00 in0.0 mm 0.00 in0.0 mm 0.00 in0.0 mm
02:10 AM 76.5°F24.7°C 66.9°F19.4°C 72% 3.4 mph NE5.5 kmh NE 7.4 mph11.9 kmh 29.33 in993.2 mb 0.00 in0.0 mm 0.00 in0.0 mm 0.00 in0.0 mm
02:15 AM 76.5°F24.7°C 67.0°F19.4°C 72% 5.8 mph NNE9.3 kmh NNE 9.8 mph15.8 kmh 29.33 in993.2 mb 0.00 in0.0 mm 0.00 in0.0 mm 0.00 in0.0 mm
02:20 AM 76.5°F24.7°C 67.2°F19.6°C 73% 3.5 mph N5.6 kmh N 7.4 mph11.9 kmh 29.33 in993.2 mb 0.00 in0.0 mm 0.00 in0.0 mm 0.00 in0.0 mm
02:25 AM 76.5°F24.7°C 67.2°F19.6°C 73% 2.1 mph N3.4 kmh N 4.9 mph7.9 kmh 29.33 in993.2 mb 0.00 in0.0 mm 0.00 in0.0 mm 0.00 in0.0 mm
02:30 AM 76.5°F24.7°C 67.3°F19.6°C 73% 3.4 mph NNE5.5 kmh NNE 9.8 mph15.8 kmh 29.33 in993.2 mb 0.00 in0.0 mm 0.00 in0.0 mm 0.00 in0.0 mm
02:35 AM 76.5°F24.7°C 67.3°F19.6°C 73% 2.5 mph NE4.0 kmh NE 7.4 mph11.9 kmh 29.33 in993.2 mb 0.00 in0.0 mm 0.00 in0.0 mm 0.00 in0.0 mm
02:40 AM 76.5°F24.7°C 67.6°F19.8°C 74% 4.7 mph NE7.6 kmh NE 12.3 mph19.8 kmh 29.32 in992.9 mb 0.00 in0.0 mm 0.00 in0.0 mm 0.00 in0.0 mm
02:45 AM 76.5°F24.7°C 67.6°F19.8°C 74% 2.8 mph NNE4.5 kmh NNE 9.8 mph15.8 kmh 29.32 in992.9 mb 0.00 in0.0 mm 0.00 in0.0 mm 0.00 in0.0 mm
02:50 AM 76.5°F24.7°C 67.6°F19.8°C 74% 4.5 mph NE7.2 kmh NE 9.8 mph15.8 kmh 29.32 in992.9 mb 0.00 in0.0 mm 0.00 in0.0 mm 0.00 in0.0 mm
02:55 AM 76.5°F24.7°C 67.6°F19.8°C 74% 4.6 mph NNE7.4 kmh NNE 15.0 mph24.1 kmh 29.32 in992.9 mb 0.00 in0.0 mm 0.00 in0.0 mm 0.00 in0.0 mm
03:00 AM 76.5°F24.7°C 67.6°F19.8°C 74% 3.3 mph NNE5.3 kmh NNE 7.4 mph11.9 kmh 29.32 in992.9 mb 0.00 in0.0 mm 0.00 in0.0 mm 0.00 in0.0 mm
03:05 AM 76.5°F24.7°C 67.5°F19.7°C 74% 5.5 mph NNE8.9 kmh NNE 9.8 mph15.8 kmh 29.32 in992.9 mb 0.00 in0.0 mm 0.00 in0.0 mm 0.00 in0.0 mm
03:10 AM 76.3°F24.6°C 67.5°F19.7°C 74% 5.0 mph N8.0 kmh N 9.8 mph15.8 kmh 29.32 in992.9 mb 0.00 in0.0 mm 0.00 in0.0 mm 0.00 in0.0 mm
03:15 AM 76.3°F24.6°C 67.8°F19.9°C 75% 3.8 mph N6.1 kmh N 12.3 mph19.8 kmh 29.31 in992.6 mb 0.00 in0.0 mm 0.00 in0.0 mm 0.00 in0.0 mm
03:20 AM 76.3°F24.6°C 67.8°F19.9°C 75% 5.6 mph NNE9.0 kmh NNE 12.3 mph19.8 kmh 29.31 in992.6 mb 0.00 in0.0 mm 0.00 in0.0 mm 0.00 in0.0 mm
03:25 AM 76.3°F24.6°C 67.7°F19.8°C 75% 4.2 mph NE6.8 kmh NE 7.4 mph11.9 kmh 29.31 in992.6 mb 0.00 in0.0 mm 0.00 in0.0 mm 0.00 in0.0 mm
03:30 AM 76.1°F24.5°C 67.6°F19.8°C 75% 4.6 mph NE7.4 kmh NE 9.8 mph15.8 kmh 29.31 in992.6 mb 0.00 in0.0 mm 0.00 in0.0 mm 0.00 in0.0 mm
03:35 AM 76.1°F24.5°C 67.6°F19.8°C 75% 2.9 mph NE4.7 kmh NE 9.8 mph15.8 kmh 29.32 in992.9 mb 0.00 in0.0 mm 0.00 in0.0 mm 0.00 in0.0 mm
03:40 AM 76.0°F24.4°C 67.5°F19.7°C 75% 3.2 mph NNW5.1 kmh NNW 9.8 mph15.8 kmh 29.31 in992.6 mb 0.00 in0.0 mm 0.00 in0.0 mm 0.00 in0.0 mm
03:45 AM 75.9°F24.4°C 67.4°F19.7°C 75% 5.0 mph N8.0 kmh N 9.8 mph15.8 kmh 29.31 in992.6 mb 0.00 in0.0 mm 0.00 in0.0 mm 0.00 in0.0 mm
03:50 AM 76.0°F24.4°C 67.5°F19.7°C 75% 2.5 mph N4.0 kmh N 4.9 mph7.9 kmh 29.32 in992.9 mb 0.00 in0.0 mm 0.00 in0.0 mm 0.00 in0.0 mm
03:55 AM 76.1°F24.5°C 67.6°F19.8°C 75% 3.3 mph NNW5.3 kmh NNW 7.4 mph11.9 kmh 29.31 in992.6 mb 0.00 in0.0 mm 0.00 in0.0 mm 0.00 in0.0 mm
04:00 AM 76.1°F24.5°C 67.6°F19.8°C 75% 4.3 mph N6.9 kmh N 9.8 mph15.8 kmh 29.32 in992.9 mb 0.00 in0.0 mm 0.00 in0.0 mm 0.00 in0.0 mm
04:05 AM 76.1°F24.5°C 68.0°F20.0°C 76% 3.0 mph N4.8 kmh N 7.4 mph11.9 kmh 29.32 in992.9 mb 0.00 in0.0 mm 0.00 in0.0 mm 0.00 in0.0 mm
04:10 AM 76.1°F24.5°C 68.0°F20.0°C 76% 3.3 mph NNE5.3 kmh NNE 7.4 mph11.9 kmh 29.32 in992.9 mb 0.00 in0.0 mm 0.00 in0.0 mm 0.00 in0.0 mm
04:15 AM 75.9°F24.4°C 67.8°F19.9°C 76% 4.3 mph NNE6.9 kmh NNE 9.8 mph15.8 kmh 29.33 in993.2 mb 0.00 in0.0 mm 0.00 in0.0 mm 0.00 in0.0 mm
04:20 AM 75.9°F24.4°C 67.8°F19.9°C 76% 3.4 mph NNW5.5 kmh NNW 9.8 mph15.8 kmh 29.33 in993.2 mb 0.00 in0.0 mm 0.00 in0.0 mm 0.00 in0.0 mm
04:25 AM 75.8°F24.3°C 67.7°F19.8°C 76% 3.7 mph NNE6.0 kmh NNE 12.3 mph19.8 kmh 29.33 in993.2 mb 0.00 in0.0 mm 0.00 in0.0 mm 0.00 in0.0 mm
04:30 AM 75.7°F24.3°C 67.7°F19.8°C 76% 3.4 mph NNE5.5 kmh NNE 9.8 mph15.8 kmh 29.32 in992.9 mb 0.00 in0.0 mm 0.00 in0.0 mm 0.00 in0.0 mm
04:35 AM 75.7°F24.3°C 67.9°F19.9°C 77% 4.9 mph NE7.9 kmh NE 12.3 mph19.8 kmh 29.32 in992.9 mb 0.00 in0.0 mm 0.00 in0.0 mm 0.00 in0.0 mm
04:40 AM 75.7°F24.3°C 68.0°F20.0°C 77% 4.2 mph NE6.8 kmh NE 9.8 mph15.8 kmh 29.33 in993.2 mb 0.00 in0.0 mm 0.00 in0.0 mm 0.00 in0.0 mm
04:45 AM 75.7°F24.3°C 68.0°F20.0°C 77% 3.6 mph NE5.8 kmh NE 9.8 mph15.8 kmh 29.32 in992.9 mb 0.00 in0.0 mm 0.00 in0.0 mm 0.00 in0.0 mm
04:50 AM 75.7°F24.3°C 68.0°F20.0°C 77% 4.5 mph N7.2 kmh N 12.3 mph19.8 kmh 29.32 in992.9 mb 0.00 in0.0 mm 0.00 in0.0 mm 0.00 in0.0 mm
04:55 AM 75.7°F24.3°C 68.3°F20.2°C 78% 4.2 mph NE6.8 kmh NE 7.4 mph11.9 kmh 29.32 in992.9 mb 0.00 in0.0 mm 0.00 in0.0 mm 0.00 in0.0 mm
05:00 AM 75.7°F24.3°C 68.3°F20.2°C 78% 3.4 mph N5.5 kmh N 7.4 mph11.9 kmh 29.32 in992.9 mb 0.00 in0.0 mm 0.00 in0.0 mm 0.00 in0.0 mm
05:05 AM 75.7°F24.3°C 68.7°F20.4°C 79% 4.8 mph ENE7.7 kmh ENE 9.8 mph15.8 kmh 29.32 in992.9 mb 0.00 in0.0 mm 0.00 in0.0 mm 0.00 in0.0 mm
05:10 AM 75.6°F24.2°C 68.8°F20.4°C 80% 4.4 mph NE7.1 kmh NE 9.8 mph15.8 kmh 29.32 in992.9 mb 0.00 in0.0 mm 0.00 in0.0 mm 0.00 in0.0 mm
05:15 AM 75.5°F24.2°C 69.0°F20.6°C 80% 3.5 mph NNE5.6 kmh NNE 7.4 mph11.9 kmh 29.32 in992.9 mb 0.00 in0.0 mm 0.00 in0.0 mm 0.00 in0.0 mm
05:20 AM 75.4°F24.1°C 69.2°F20.7°C 81% 4.1 mph NNE6.6 kmh NNE 9.8 mph15.8 kmh 29.31 in992.6 mb 0.00 in0.0 mm 0.00 in0.0 mm 0.00 in0.0 mm
05:25 AM 75.3°F24.1°C 69.6°F20.9°C 82% 3.9 mph NNE6.3 kmh NNE 12.3 mph19.8 kmh 29.31 in992.6 mb 0.00 in0.0 mm 0.00 in0.0 mm 0.00 in0.0 mm
05:30 AM 75.2°F24.0°C 69.5°F20.8°C 83% 3.7 mph NNE6.0 kmh NNE 9.8 mph15.8 kmh 29.31 in992.6 mb 0.00 in0.0 mm 0.00 in0.0 mm 0.00 in0.0 mm
05:35 AM 75.0°F23.9°C 69.1°F20.6°C 82% 4.1 mph NE6.6 kmh NE 7.4 mph11.9 kmh 29.32 in992.9 mb 0.00 in0.0 mm 0.00 in0.0 mm 0.00 in0.0 mm
05:40 AM 75.0°F23.9°C 69.1°F20.6°C 82% 5.3 mph N8.5 kmh N 9.8 mph15.8 kmh 29.32 in992.9 mb 0.00 in0.0 mm 0.00 in0.0 mm 0.00 in0.0 mm
05:45 AM 75.0°F23.9°C 69.0°F20.6°C 82% 2.4 mph NE3.9 kmh NE 4.9 mph7.9 kmh 29.32 in992.9 mb 0.00 in0.0 mm 0.00 in0.0 mm 0.00 in0.0 mm
05:50 AM 75.1°F23.9°C 68.9°F20.5°C 81% 3.2 mph NE5.1 kmh NE 7.4 mph11.9 kmh 29.32 in992.9 mb 0.00 in0.0 mm 0.00 in0.0 mm 0.00 in0.0 mm
05:55 AM 75.2°F24.0°C 69.0°F20.6°C 81% 4.9 mph N7.9 kmh N 9.8 mph15.8 kmh 29.33 in993.2 mb 0.00 in0.0 mm 0.00 in0.0 mm 0.00 in0.0 mm
06:00 AM 75.4°F24.1°C 69.2°F20.7°C 81% 2.8 mph E4.5 kmh E 9.8 mph15.8 kmh 29.33 in993.2 mb 0.00 in0.0 mm 0.00 in0.0 mm 0.00 in0.0 mm
06:05 AM 75.5°F24.2°C 69.3°F20.7°C 81% 4.7 mph NNE7.6 kmh NNE 9.8 mph15.8 kmh 29.33 in993.2 mb 0.00 in0.0 mm 0.00 in0.0 mm 0.00 in0.0 mm
06:10 AM 75.6°F24.2°C 69.4°F20.8°C 81% 4.1 mph NE6.6 kmh NE 7.4 mph11.9 kmh 29.33 in993.2 mb 0.00 in0.0 mm 0.00 in0.0 mm 0.00 in0.0 mm
06:15 AM 75.7°F24.3°C 69.4°F20.8°C 81% 7.1 mph NNE11.4 kmh NNE 15.0 mph24.1 kmh 29.33 in993.2 mb 0.00 in0.0 mm 0.00 in0.0 mm 0.00 in0.0 mm
06:20 AM 75.8°F24.3°C 69.4°F20.8°C 80% 6.7 mph NNE10.8 kmh NNE 12.3 mph19.8 kmh 29.33 in993.2 mb 0.00 in0.0 mm 0.00 in0.0 mm 0.00 in0.0 mm
06:25 AM 75.9°F24.4°C 69.3°F20.7°C 80% 6.7 mph NE10.8 kmh NE 12.3 mph19.8 kmh 29.33 in993.2 mb 0.00 in0.0 mm 0.00 in0.0 mm 0.00 in0.0 mm
06:30 AM 76.1°F24.5°C 69.5°F20.8°C 80% 3.9 mph NE6.3 kmh NE 9.8 mph15.8 kmh 29.32 in992.9 mb 0.00 in0.0 mm 0.00 in0.0 mm 0.00 in0.0 mm
06:35 AM 76.1°F24.5°C 69.9°F21.1°C 81% 3.2 mph NNE5.1 kmh NNE 4.9 mph7.9 kmh 29.34 in993.6 mb 0.00 in0.0 mm 0.00 in0.0 mm 0.00 in0.0 mm
06:40 AM 76.3°F24.6°C 70.0°F21.1°C 81% 4.4 mph N7.1 kmh N 9.8 mph15.8 kmh 29.34 in993.6 mb 0.00 in0.0 mm 0.00 in0.0 mm 0.00 in0.0 mm
06:45 AM 76.3°F24.6°C 70.0°F21.1°C 81% 4.1 mph N6.6 kmh N 9.8 mph15.8 kmh 29.34 in993.6 mb 0.00 in0.0 mm 0.00 in0.0 mm 0.00 in0.0 mm
06:50 AM 76.3°F24.6°C 70.0°F21.1°C 81% 4.9 mph NE7.9 kmh NE 12.3 mph19.8 kmh 29.34 in993.6 mb 0.00 in0.0 mm 0.00 in0.0 mm 0.00 in0.0 mm
06:55 AM 76.3°F24.6°C 70.0°F21.1°C 81% 5.8 mph NE9.3 kmh NE 9.8 mph15.8 kmh 29.34 in993.6 mb 0.00 in0.0 mm 0.00 in0.0 mm 0.00 in0.0 mm
07:00 AM 76.1°F24.5°C 69.8°F21.0°C 81% 4.7 mph NNE7.6 kmh NNE 9.8 mph15.8 kmh 29.34 in993.6 mb 0.00 in0.0 mm 0.00 in0.0 mm 0.00 in0.0 mm
07:05 AM 76.1°F24.5°C 69.8°F21.0°C 81% 5.0 mph NE8.0 kmh NE 7.4 mph11.9 kmh 29.34 in993.6 mb 0.00 in0.0 mm 0.00 in0.0 mm 0.00 in0.0 mm
07:10 AM 76.0°F24.4°C 69.7°F20.9°C 81% 2.6 mph NNE4.2 kmh NNE 9.8 mph15.8 kmh 29.34 in993.6 mb 0.00 in0.0 mm 0.00 in0.0 mm 0.00 in0.0 mm
07:15 AM 75.9°F24.4°C 69.6°F20.9°C 81% 5.2 mph NE8.4 kmh NE 12.3 mph19.8 kmh 29.34 in993.6 mb 0.00 in0.0 mm 0.00 in0.0 mm 0.00 in0.0 mm
07:20 AM 75.9°F24.4°C 69.6°F20.9°C 81% 5.1 mph NE8.2 kmh NE 12.3 mph19.8 kmh 29.34 in993.6 mb 0.00 in0.0 mm 0.00 in0.0 mm 0.00 in0.0 mm
07:25 AM 75.9°F24.4°C 69.6°F20.9°C 81% 5.4 mph NE8.7 kmh NE 7.4 mph11.9 kmh 29.34 in993.6 mb 0.00 in0.0 mm 0.00 in0.0 mm 0.00 in0.0 mm
07:30 AM 75.9°F24.4°C 69.8°F21.0°C 82% 4.0 mph NNE6.4 kmh NNE 15.0 mph24.1 kmh 29.34 in993.6 mb 0.00 in0.0 mm 0.00 in0.0 mm 0.00 in0.0 mm
07:35 AM 75.9°F24.4°C 70.0°F21.1°C 82% 5.4 mph E8.7 kmh E 12.3 mph19.8 kmh 29.34 in993.6 mb 0.00 in0.0 mm 0.00 in0.0 mm 0.00 in0.0 mm
07:40 AM 75.9°F24.4°C 70.0°F21.1°C 82% 3.9 mph ENE6.3 kmh ENE 7.4 mph11.9 kmh 29.34 in993.6 mb 0.00 in0.0 mm 0.00 in0.0 mm 0.00 in0.0 mm
07:45 AM 75.8°F24.3°C 70.2°F21.2°C 83% 4.7 mph NE7.6 kmh NE 12.3 mph19.8 kmh 29.34 in993.6 mb 0.00 in0.0 mm 0.00 in0.0 mm 0.00 in0.0 mm
07:50 AM 75.7°F24.3°C 70.2°F21.2°C 83% 4.3 mph NNE6.9 kmh NNE 15.0 mph24.1 kmh 29.34 in993.6 mb 0.00 in0.0 mm 0.00 in0.0 mm 0.00 in0.0 mm
07:55 AM 75.7°F24.3°C 70.5°F21.4°C 84% 3.7 mph NE6.0 kmh NE 12.3 mph19.8 kmh 29.35 in993.9 mb 0.00 in0.0 mm 0.00 in0.0 mm 0.00 in0.0 mm
08:00 AM 75.7°F24.3°C 70.5°F21.4°C 84% 5.9 mph NE9.5 kmh NE 9.8 mph15.8 kmh 29.35 in993.9 mb 0.00 in0.0 mm 0.00 in0.0 mm 0.00 in0.0 mm
08:05 AM 75.7°F24.3°C 70.8°F21.6°C 85% 6.5 mph ENE10.5 kmh ENE 12.3 mph19.8 kmh 29.34 in993.6 mb 0.00 in0.0 mm 0.00 in0.0 mm 0.00 in0.0 mm
08:10 AM 75.6°F24.2°C 71.1°F21.7°C 86% 7.0 mph NE11.3 kmh NE 9.8 mph15.8 kmh 29.34 in993.6 mb 0.00 in0.0 mm 0.00 in0.0 mm 0.00 in0.0 mm
08:15 AM 75.4°F24.1°C 71.8°F22.1°C 88% 3.1 mph NE5.0 kmh NE 9.8 mph15.8 kmh 29.34 in993.6 mb 0.00 in0.0 mm 0.00 in0.0 mm 0.00 in0.0 mm
08:20 AM 75.2°F24.0°C 72.0°F22.2°C 90% 3.1 mph NNE5.0 kmh NNE 7.4 mph11.9 kmh 29.34 in993.6 mb 0.00 in0.0 mm 0.00 in0.0 mm 0.00 in0.0 mm
08:25 AM 74.9°F23.8°C 72.1°F22.3°C 91% 4.1 mph NNE6.6 kmh NNE 7.4 mph11.9 kmh 29.34 in993.6 mb 0.00 in0.0 mm 0.00 in0.0 mm 0.00 in0.0 mm
08:30 AM 74.8°F23.8°C 72.3°F22.4°C 92% 2.8 mph NNW4.5 kmh NNW 7.4 mph11.9 kmh 29.34 in993.6 mb 0.00 in0.0 mm 0.00 in0.0 mm 0.00 in0.0 mm
08:35 AM 74.6°F23.7°C 72.1°F22.3°C 92% 3.8 mph NE6.1 kmh NE 9.8 mph15.8 kmh 29.35 in993.9 mb 0.00 in0.0 mm 0.00 in0.0 mm 0.00 in0.0 mm
08:40 AM 74.4°F23.6°C 71.9°F22.2°C 92% 3.2 mph NE5.1 kmh NE 7.4 mph11.9 kmh 29.34 in993.6 mb 0.00 in0.0 mm 0.00 in0.0 mm 0.00 in0.0 mm
08:45 AM 74.3°F23.5°C 71.9°F22.2°C 92% 3.7 mph NE6.0 kmh NE 7.4 mph11.9 kmh 29.35 in993.9 mb 0.00 in0.0 mm 0.00 in0.0 mm 0.00 in0.0 mm
08:50 AM 74.2°F23.4°C 72.0°F22.2°C 93% 3.1 mph NE5.0 kmh NE 7.4 mph11.9 kmh 29.35 in993.9 mb 0.00 in0.0 mm 0.00 in0.0 mm 0.00 in0.0 mm
08:55 AM 74.1°F23.4°C 71.9°F22.2°C 93% 4.3 mph NE6.9 kmh NE 7.4 mph11.9 kmh 29.35 in993.9 mb 0.01 in0.3 mm 0.12 in3.0 mm 0.01 in0.3 mm
09:00 AM 74.1°F23.4°C 71.9°F22.2°C 93% 3.8 mph N6.1 kmh N 15.0 mph24.1 kmh 29.35 in993.9 mb 0.01 in0.3 mm 0.00 in0.0 mm 0.01 in0.3 mm
09:05 AM 74.0°F23.3°C 71.9°F22.2°C 93% 6.5 mph NE10.5 kmh NE 12.3 mph19.8 kmh 29.35 in993.9 mb 0.01 in0.3 mm 0.00 in0.0 mm 0.01 in0.3 mm
09:10 AM 73.9°F23.3°C 72.1°F22.3°C 94% 5.0 mph NNE8.0 kmh NNE 9.8 mph15.8 kmh 29.35 in993.9 mb 0.02 in0.5 mm 0.12 in3.0 mm 0.02 in0.5 mm
09:15 AM 73.9°F23.3°C 72.1°F22.3°C 94% 4.1 mph NE6.6 kmh NE 9.8 mph15.8 kmh 29.35 in993.9 mb 0.02 in0.5 mm 0.00 in0.0 mm 0.02 in0.5 mm
09:20 AM 73.9°F23.3°C 72.1°F22.3°C 94% 4.8 mph NE7.7 kmh NE 12.3 mph19.8 kmh 29.36 in994.2 mb 0.02 in0.5 mm 0.00 in0.0 mm 0.02 in0.5 mm
09:25 AM 73.9°F23.3°C 72.1°F22.3°C 94% 4.2 mph N6.8 kmh N 9.8 mph15.8 kmh 29.35 in993.9 mb 0.04 in1.0 mm 0.24 in6.1 mm 0.04 in1.0 mm
09:30 AM 73.9°F23.3°C 72.4°F22.4°C 95% 4.2 mph NNE6.8 kmh NNE 9.8 mph15.8 kmh 29.36 in994.2 mb 0.04 in1.0 mm 0.00 in0.0 mm 0.04 in1.0 mm
09:35 AM 73.8°F23.2°C 72.3°F22.4°C 95% 4.1 mph NNE6.6 kmh NNE 12.3 mph19.8 kmh 29.36 in994.2 mb 0.04 in1.0 mm 0.00 in0.0 mm 0.04 in1.0 mm
09:40 AM 73.8°F23.2°C 72.3°F22.4°C 95% 3.8 mph NE6.1 kmh NE 9.8 mph15.8 kmh 29.35 in993.9 mb 0.04 in1.0 mm 0.00 in0.0 mm 0.04 in1.0 mm
09:45 AM 73.8°F23.2°C 72.3°F22.4°C 95% 3.5 mph NE5.6 kmh NE 7.4 mph11.9 kmh 29.36 in994.2 mb 0.05 in1.3 mm 0.12 in3.0 mm 0.05 in1.3 mm
09:50 AM 73.8°F23.2°C 72.3°F22.4°C 95% 2.6 mph ENE4.2 kmh ENE 4.9 mph7.9 kmh 29.36 in994.2 mb 0.05 in1.3 mm 0.00 in0.0 mm 0.05 in1.3 mm
09:55 AM 73.6°F23.1°C 72.1°F22.3°C 95% 3.3 mph NNE5.3 kmh NNE 7.4 mph11.9 kmh 29.36 in994.2 mb 0.04 in1.0 mm 0.00 in0.0 mm 0.05 in1.3 mm
10:00 AM 73.6°F23.1°C 72.1°F22.3°C 95% 3.7 mph NE6.0 kmh NE 9.8 mph15.8 kmh 29.36 in994.2 mb 0.04 in1.0 mm 0.00 in0.0 mm 0.05 in1.3 mm
10:05 AM 73.6°F23.1°C 72.1°F22.3°C 95% 1.8 mph NNE2.9 kmh NNE 4.9 mph7.9 kmh 29.36 in994.2 mb 0.05 in1.3 mm 0.12 in3.0 mm 0.06 in1.5 mm
10:10 AM 73.6°F23.1°C 72.2°F22.3°C 95% 4.3 mph NNE6.9 kmh NNE 7.4 mph11.9 kmh 29.37 in994.6 mb 0.04 in1.0 mm 0.00 in0.0 mm 0.06 in1.5 mm
10:15 AM 73.6°F23.1°C 72.4°F22.4°C 96% 5.7 mph NNW9.2 kmh NNW 9.8 mph15.8 kmh 29.36 in994.2 mb 0.05 in1.3 mm 0.12 in3.0 mm 0.07 in1.8 mm
10:20 AM 73.6°F23.1°C 72.4°F22.4°C 96% 3.2 mph NE5.1 kmh NE 9.8 mph15.8 kmh 29.36 in994.2 mb 0.05 in1.3 mm 0.00 in0.0 mm 0.07 in1.8 mm
10:25 AM 73.6°F23.1°C 72.4°F22.4°C 96% 3.9 mph N6.3 kmh N 9.8 mph15.8 kmh 29.37 in994.6 mb 0.04 in1.0 mm 0.00 in0.0 mm 0.08 in2.0 mm
10:30 AM 73.7°F23.2°C 72.5°F22.5°C 96% 3.8 mph NE6.1 kmh NE 7.4 mph11.9 kmh 29.37 in994.6 mb 0.04 in1.0 mm 0.00 in0.0 mm 0.08 in2.0 mm
10:35 AM 73.8°F23.2°C 72.6°F22.6°C 96% 4.7 mph NE7.6 kmh NE 9.8 mph15.8 kmh 29.37 in994.6 mb 0.04 in1.0 mm 0.00 in0.0 mm 0.08 in2.0 mm
10:40 AM 73.8°F23.2°C 72.6°F22.6°C 96% 4.8 mph NE7.7 kmh NE 9.8 mph15.8 kmh 29.37 in994.6 mb 0.04 in1.0 mm 0.00 in0.0 mm 0.08 in2.0 mm
10:45 AM 73.9°F23.3°C 72.7°F22.6°C 96% 4.4 mph N7.1 kmh N 12.3 mph19.8 kmh 29.36 in994.2 mb 0.03 in0.8 mm 0.00 in0.0 mm 0.08 in2.0 mm
10:50 AM 74.1°F23.4°C 72.9°F22.7°C 96% 6.6 mph NE10.6 kmh NE 12.3 mph19.8 kmh 29.37 in994.6 mb 0.03 in0.8 mm 0.00 in0.0 mm 0.08 in2.0 mm
10:55 AM 74.1°F23.4°C 72.9°F22.7°C 96% 7.0 mph NE11.3 kmh NE 12.3 mph19.8 kmh 29.36 in994.2 mb 0.04 in1.0 mm 0.12 in3.0 mm 0.09 in2.3 mm
11:00 AM 74.3°F23.5°C 73.1°F22.8°C 96% 4.7 mph N7.6 kmh N 12.3 mph19.8 kmh 29.36 in994.2 mb 0.04 in1.0 mm 0.00 in0.0 mm 0.09 in2.3 mm
11:05 AM 74.3°F23.5°C 73.1°F22.8°C 96% 4.8 mph NE7.7 kmh NE 9.8 mph15.8 kmh 29.36 in994.2 mb 0.03 in0.8 mm 0.00 in0.0 mm 0.09 in2.3 mm
11:10 AM 74.4°F23.6°C 73.1°F22.8°C 96% 4.5 mph N7.2 kmh N 7.4 mph11.9 kmh 29.36 in994.2 mb 0.03 in0.8 mm 0.00 in0.0 mm 0.09 in2.3 mm
11:15 AM 74.5°F23.6°C 73.3°F22.9°C 96% 4.4 mph ENE7.1 kmh ENE 9.8 mph15.8 kmh 29.36 in994.2 mb 0.02 in0.5 mm 0.00 in0.0 mm 0.09 in2.3 mm
11:20 AM 74.5°F23.6°C 73.3°F22.9°C 96% 4.0 mph N6.4 kmh N 7.4 mph11.9 kmh 29.36 in994.2 mb 0.05 in1.3 mm 0.36 in9.1 mm 0.12 in3.0 mm
11:25 AM 74.5°F23.6°C 73.3°F22.9°C 96% 4.7 mph NNE7.6 kmh NNE 9.8 mph15.8 kmh 29.36 in994.2 mb 0.04 in1.0 mm 0.00 in0.0 mm 0.12 in3.0 mm
11:30 AM 74.6°F23.7°C 73.4°F23.0°C 96% 5.6 mph N9.0 kmh N 12.3 mph19.8 kmh 29.36 in994.2 mb 0.04 in1.0 mm 0.00 in0.0 mm 0.12 in3.0 mm
11:35 AM 74.7°F23.7°C 73.5°F23.1°C 96% 4.9 mph NNE7.9 kmh NNE 9.8 mph15.8 kmh 29.36 in994.2 mb 0.05 in1.3 mm 0.12 in3.0 mm 0.13 in3.3 mm
11:40 AM 74.7°F23.7°C 73.5°F23.1°C 96% 5.1 mph NE8.2 kmh NE 7.4 mph11.9 kmh 29.36 in994.2 mb 0.05 in1.3 mm 0.00 in0.0 mm 0.13 in3.3 mm
11:45 AM 74.6°F23.7°C 73.4°F23.0°C 96% 4.3 mph N6.9 kmh N 9.8 mph15.8 kmh 29.36 in994.2 mb 0.06 in1.5 mm 0.12 in3.0 mm 0.14 in3.6 mm
11:50 AM 74.5°F23.6°C 73.3°F22.9°C 96% 5.3 mph NE8.5 kmh NE 9.8 mph15.8 kmh 29.35 in993.9 mb 0.06 in1.5 mm 0.00 in0.0 mm 0.14 in3.6 mm
11:55 AM 74.5°F23.6°C 73.3°F22.9°C 96% 5.5 mph NNE8.9 kmh NNE 12.3 mph19.8 kmh 29.36 in994.2 mb 0.05 in1.3 mm 0.00 in0.0 mm 0.14 in3.6 mm
12:00 PM 74.5°F23.6°C 73.3°F22.9°C 96% 4.4 mph NE7.1 kmh NE 9.8 mph15.8 kmh 29.34 in993.6 mb 0.05 in1.3 mm 0.00 in0.0 mm 0.14 in3.6 mm
12:05 PM 74.5°F23.6°C 73.3°F22.9°C 96% 4.1 mph NE6.6 kmh NE 7.4 mph11.9 kmh 29.35 in993.9 mb 0.05 in1.3 mm 0.00 in0.0 mm 0.14 in3.6 mm
12:10 PM 74.5°F23.6°C 73.3°F22.9°C 96% 5.0 mph N8.0 kmh N 12.3 mph19.8 kmh 29.35 in993.9 mb 0.05 in1.3 mm 0.00 in0.0 mm 0.14 in3.6 mm
12:15 PM 74.5°F23.6°C 73.3°F22.9°C 96% 5.1 mph N8.2 kmh N 9.8 mph15.8 kmh 29.34 in993.6 mb 0.05 in1.3 mm 0.00 in0.0 mm 0.14 in3.6 mm
12:20 PM 74.5°F23.6°C 73.4°F23.0°C 96% 2.9 mph NNE4.7 kmh NNE 7.4 mph11.9 kmh 29.35 in993.9 mb 0.02 in0.5 mm 0.00 in0.0 mm 0.14 in3.6 mm
12:25 PM 74.5°F23.6°C 73.6°F23.1°C 97% 3.4 mph NE5.5 kmh NE 7.4 mph11.9 kmh 29.35 in993.9 mb 0.02 in0.5 mm 0.00 in0.0 mm 0.14 in3.6 mm
12:30 PM 74.5°F23.6°C 73.6°F23.1°C 97% 5.2 mph NE8.4 kmh NE 15.0 mph24.1 kmh 29.35 in993.9 mb 0.02 in0.5 mm 0.00 in0.0 mm 0.14 in3.6 mm
12:35 PM 74.5°F23.6°C 73.6°F23.1°C 97% 4.3 mph NE6.9 kmh NE 7.4 mph11.9 kmh 29.34 in993.6 mb 0.01 in0.3 mm 0.00 in0.0 mm 0.14 in3.6 mm
12:40 PM 74.5°F23.6°C 73.6°F23.1°C 97% 3.6 mph NE5.8 kmh NE 12.3 mph19.8 kmh 29.34 in993.6 mb 0.01 in0.3 mm 0.00 in0.0 mm 0.14 in3.6 mm
12:45 PM 74.6°F23.7°C 73.7°F23.2°C 97% 4.9 mph NE7.9 kmh NE 15.0 mph24.1 kmh 29.34 in993.6 mb 0.00 in0.0 mm 0.00 in0.0 mm 0.14 in3.6 mm
12:50 PM 74.7°F23.7°C 73.8°F23.2°C 97% 6.1 mph N9.8 kmh N 12.3 mph19.8 kmh 29.34 in993.6 mb 0.00 in0.0 mm 0.00 in0.0 mm 0.14 in3.6 mm
12:55 PM 74.7°F23.7°C 73.8°F23.2°C 97% 5.2 mph E8.4 kmh E 9.8 mph15.8 kmh 29.34 in993.6 mb 0.00 in0.0 mm 0.00 in0.0 mm 0.14 in3.6 mm
01:00 PM 74.7°F23.7°C 73.7°F23.2°C 97% 5.1 mph N8.2 kmh N 12.3 mph19.8 kmh 29.34 in993.6 mb 0.00 in0.0 mm 0.00 in0.0 mm 0.14 in3.6 mm
01:05 PM 74.7°F23.7°C 73.6°F23.1°C 96% 4.9 mph NE7.9 kmh NE 9.8 mph15.8 kmh 29.34 in993.6 mb 0.00 in0.0 mm 0.00 in0.0 mm 0.14 in3.6 mm
01:10 PM 74.8°F23.8°C 73.6°F23.1°C 96% 5.8 mph NE9.3 kmh NE 12.3 mph19.8 kmh 29.33 in993.2 mb 0.00 in0.0 mm 0.00 in0.0 mm 0.14 in3.6 mm
01:15 PM 74.8°F23.8°C 73.6°F23.1°C 96% 3.9 mph NNE6.3 kmh NNE 12.3 mph19.8 kmh 29.34 in993.6 mb 0.00 in0.0 mm 0.00 in0.0 mm 0.14 in3.6 mm
01:20 PM 75.0°F23.9°C 73.8°F23.2°C 96% 4.8 mph NE7.7 kmh NE 9.8 mph15.8 kmh 29.34 in993.6 mb 0.00 in0.0 mm 0.00 in0.0 mm 0.14 in3.6 mm
01:25 PM 75.0°F23.9°C 73.8°F23.2°C 96% 4.5 mph NNE7.2 kmh NNE 9.8 mph15.8 kmh 29.34 in993.6 mb 0.00 in0.0 mm 0.00 in0.0 mm 0.14 in3.6 mm
01:30 PM 75.2°F24.0°C 74.0°F23.3°C 96% 3.2 mph E5.1 kmh E 7.4 mph11.9 kmh 29.34 in993.6 mb 0.00 in0.0 mm 0.00 in0.0 mm 0.14 in3.6 mm
01:35 PM 75.2°F24.0°C 74.0°F23.3°C 96% 3.6 mph NE5.8 kmh NE 7.4 mph11.9 kmh 29.34 in993.6 mb 0.00 in0.0 mm 0.00 in0.0 mm 0.14 in3.6 mm
01:40 PM 75.2°F24.0°C 74.0°F23.3°C 96% 4.4 mph NE7.1 kmh NE 9.8 mph15.8 kmh 29.34 in993.6 mb 0.00 in0.0 mm 0.00 in0.0 mm 0.14 in3.6 mm
01:45 PM 75.2°F24.0°C 74.0°F23.3°C 96% 4.2 mph NE6.8 kmh NE 12.3 mph19.8 kmh 29.33 in993.2 mb 0.00 in0.0 mm 0.00 in0.0 mm 0.14 in3.6 mm
01:50 PM 75.2°F24.0°C 74.0°F23.3°C 96% 3.3 mph NE5.3 kmh NE 7.4 mph11.9 kmh 29.33 in993.2 mb 0.00 in0.0 mm 0.00 in0.0 mm 0.14 in3.6 mm
01:55 PM 75.4°F24.1°C 74.2°F23.4°C 96% 7.8 mph NE12.6 kmh NE 19.9 mph32.0 kmh 29.33 in993.2 mb 0.00 in0.0 mm 0.00 in0.0 mm 0.14 in3.6 mm
02:00 PM 75.4°F24.1°C 74.2°F23.4°C 96% 4.6 mph NNE7.4 kmh NNE 12.3 mph19.8 kmh 29.32 in992.9 mb 0.00 in0.0 mm 0.00 in0.0 mm 0.14 in3.6 mm
02:05 PM 75.4°F24.1°C 74.2°F23.4°C 96% 5.7 mph NE9.2 kmh NE 9.8 mph15.8 kmh 29.32 in992.9 mb 0.00 in0.0 mm 0.00 in0.0 mm 0.14 in3.6 mm
02:10 PM 75.4°F24.1°C 74.2°F23.4°C 96% 5.2 mph NE8.4 kmh NE 15.0 mph24.1 kmh 29.32 in992.9 mb 0.00 in0.0 mm 0.00 in0.0 mm 0.14 in3.6 mm
02:15 PM 75.5°F24.2°C 74.3°F23.5°C 96% 3.1 mph NNE5.0 kmh NNE 4.9 mph7.9 kmh 29.32 in992.9 mb 0.00 in0.0 mm 0.00 in0.0 mm 0.14 in3.6 mm
02:20 PM 75.6°F24.2°C 74.4°F23.6°C 96% 6.5 mph NNE10.5 kmh NNE 12.3 mph19.8 kmh 29.32 in992.9 mb 0.00 in0.0 mm 0.00 in0.0 mm 0.14 in3.6 mm
02:25 PM 75.6°F24.2°C 74.4°F23.6°C 96% 2.8 mph NNE4.5 kmh NNE 4.9 mph7.9 kmh 29.32 in992.9 mb 0.00 in0.0 mm 0.00 in0.0 mm 0.14 in3.6 mm
02:30 PM 75.6°F24.2°C 74.4°F23.6°C 96% 5.3 mph ENE8.5 kmh ENE 17.4 mph28.0 kmh 29.32 in992.9 mb 0.00 in0.0 mm 0.00 in0.0 mm 0.14 in3.6 mm
02:35 PM 75.6°F24.2°C 74.4°F23.6°C 96% 3.6 mph NNE5.8 kmh NNE 9.8 mph15.8 kmh 29.32 in992.9 mb 0.00 in0.0 mm 0.00 in0.0 mm 0.14 in3.6 mm
02:40 PM 75.6°F24.2°C 74.4°F23.6°C 96% 6.3 mph ENE10.1 kmh ENE 12.3 mph19.8 kmh 29.32 in992.9 mb 0.00 in0.0 mm 0.00 in0.0 mm 0.14 in3.6 mm
02:45 PM 75.6°F24.2°C 74.4°F23.6°C 96% 3.6 mph NE5.8 kmh NE 9.8 mph15.8 kmh 29.32 in992.9 mb 0.00 in0.0 mm 0.00 in0.0 mm 0.14 in3.6 mm
02:55 PM 75.6°F24.2°C 74.4°F23.6°C 96% 9.5 mph ENE15.3 kmh ENE 15.0 mph24.1 kmh 29.32 in992.9 mb 0.00 in0.0 mm 0.00 in0.0 mm 0.14 in3.6 mm
03:00 PM 75.6°F24.2°C 74.4°F23.6°C 96% 5.2 mph NE8.4 kmh NE 9.8 mph15.8 kmh 29.31 in992.6 mb 0.00 in0.0 mm 0.00 in0.0 mm 0.14 in3.6 mm
03:05 PM 75.7°F24.3°C 74.5°F23.6°C 96% 5.4 mph NE8.7 kmh NE 12.3 mph19.8 kmh 29.32 in992.9 mb 0.00 in0.0 mm 0.00 in0.0 mm 0.14 in3.6 mm
03:10 PM 75.7°F24.3°C 74.5°F23.6°C 96% 6.6 mph NE10.6 kmh NE 12.3 mph19.8 kmh 29.32 in992.9 mb 0.00 in0.0 mm 0.00 in0.0 mm 0.14 in3.6 mm
03:20 PM 75.7°F24.3°C 74.5°F23.6°C 96% 6.6 mph NNE10.6 kmh NNE 12.3 mph19.8 kmh 29.31 in992.6 mb 0.00 in0.0 mm 0.00 in0.0 mm 0.14 in3.6 mm
03:25 PM 75.8°F24.3°C 74.6°F23.7°C 96% 5.5 mph NE8.9 kmh NE 9.8 mph15.8 kmh 29.31 in992.6 mb 0.00 in0.0 mm 0.00 in0.0 mm 0.14 in3.6 mm
03:30 PM 75.9°F24.4°C 74.7°F23.7°C 96% 5.5 mph N8.9 kmh N 9.8 mph15.8 kmh 29.32 in992.9 mb 0.00 in0.0 mm 0.00 in0.0 mm 0.14 in3.6 mm
03:35 PM 75.9°F24.4°C 74.7°F23.7°C 96% 4.1 mph NE6.6 kmh NE 7.4 mph11.9 kmh 29.32 in992.9 mb 0.00 in0.0 mm 0.00 in0.0 mm 0.14 in3.6 mm
03:40 PM 75.9°F24.4°C 74.7°F23.7°C 96% 5.8 mph ENE9.3 kmh ENE 12.3 mph19.8 kmh 29.31 in992.6 mb 0.00 in0.0 mm 0.00 in0.0 mm 0.14 in3.6 mm
03:45 PM 75.9°F24.4°C 74.7°F23.7°C 96% 4.5 mph NE7.2 kmh NE 12.3 mph19.8 kmh 29.31 in992.6 mb 0.00 in0.0 mm 0.00 in0.0 mm 0.14 in3.6 mm
03:50 PM 75.9°F24.4°C 74.7°F23.7°C 96% 5.1 mph NNE8.2 kmh NNE 7.4 mph11.9 kmh 29.31 in992.6 mb 0.00 in0.0 mm 0.00 in0.0 mm 0.14 in3.6 mm
03:55 PM 75.9°F24.4°C 74.7°F23.7°C 96% 2.7 mph ENE4.3 kmh ENE 9.8 mph15.8 kmh 29.31 in992.6 mb 0.00 in0.0 mm 0.00 in0.0 mm 0.14 in3.6 mm
04:00 PM 75.9°F24.4°C 74.7°F23.7°C 96% 3.1 mph NE5.0 kmh NE 7.4 mph11.9 kmh 29.31 in992.6 mb 0.00 in0.0 mm 0.00 in0.0 mm 0.14 in3.6 mm
04:05 PM 75.9°F24.4°C 74.7°F23.7°C 96% 3.8 mph ENE6.1 kmh ENE 15.0 mph24.1 kmh 29.31 in992.6 mb 0.00 in0.0 mm 0.00 in0.0 mm 0.14 in3.6 mm
04:10 PM 75.9°F24.4°C 74.7°F23.7°C 96% 4.3 mph NE6.9 kmh NE 7.4 mph11.9 kmh 29.31 in992.6 mb 0.00 in0.0 mm 0.00 in0.0 mm 0.14 in3.6 mm
04:15 PM 75.9°F24.4°C 74.7°F23.7°C 96% 3.2 mph NE5.1 kmh NE 7.4 mph11.9 kmh 29.31 in992.6 mb 0.00 in0.0 mm 0.00 in0.0 mm 0.14 in3.6 mm
04:20 PM 75.9°F24.4°C 74.7°F23.7°C 96% 5.7 mph NE9.2 kmh NE 15.0 mph24.1 kmh 29.31 in992.6 mb 0.00 in0.0 mm 0.00 in0.0 mm 0.14 in3.6 mm
04:25 PM 75.8°F24.3°C 74.6°F23.7°C 96% 5.9 mph NE9.5 kmh NE 12.3 mph19.8 kmh 29.31 in992.6 mb 0.00 in0.0 mm 0.00 in0.0 mm 0.14 in3.6 mm
04:30 PM 75.9°F24.4°C 74.7°F23.7°C 96% 4.2 mph NNW6.8 kmh NNW 9.8 mph15.8 kmh 29.31 in992.6 mb 0.00 in0.0 mm 0.00 in0.0 mm 0.14 in3.6 mm
04:35 PM 75.9°F24.4°C 74.7°F23.7°C 96% 3.6 mph ENE5.8 kmh ENE 9.8 mph15.8 kmh 29.31 in992.6 mb 0.00 in0.0 mm 0.00 in0.0 mm 0.14 in3.6 mm
04:40 PM 75.9°F24.4°C 74.7°F23.7°C 96% 2.2 mph NW3.5 kmh NW 9.8 mph15.8 kmh 29.31 in992.6 mb 0.00 in0.0 mm 0.00 in0.0 mm 0.14 in3.6 mm
04:45 PM 75.9°F24.4°C 74.7°F23.7°C 96% 2.2 mph NE3.5 kmh NE 7.4 mph11.9 kmh 29.31 in992.6 mb 0.00 in0.0 mm 0.00 in0.0 mm 0.14 in3.6 mm
04:50 PM 75.8°F24.3°C 74.5°F23.6°C 96% 7.8 mph NNE12.6 kmh NNE 12.3 mph19.8 kmh 29.31 in992.6 mb 0.00 in0.0 mm 0.00 in0.0 mm 0.14 in3.6 mm
04:55 PM 75.7°F24.3°C 74.5°F23.6°C 96% 4.8 mph NE7.7 kmh NE 7.4 mph11.9 kmh 29.31 in992.6 mb 0.00 in0.0 mm 0.00 in0.0 mm 0.14 in3.6 mm
05:00 PM 75.7°F24.3°C 74.5°F23.6°C 96% 7.9 mph NNW12.7 kmh NNW 12.3 mph19.8 kmh 29.31 in992.6 mb 0.00 in0.0 mm 0.00 in0.0 mm 0.14 in3.6 mm
05:05 PM 75.7°F24.3°C 74.5°F23.6°C 96% 6.2 mph NNE10.0 kmh NNE 15.0 mph24.1 kmh 29.32 in992.9 mb 0.00 in0.0 mm 0.00 in0.0 mm 0.14 in3.6 mm
05:10 PM 75.7°F24.3°C 74.5°F23.6°C 96% 4.4 mph N7.1 kmh N 9.8 mph15.8 kmh 29.32 in992.9 mb 0.00 in0.0 mm 0.00 in0.0 mm 0.14 in3.6 mm
05:15 PM 75.7°F24.3°C 74.5°F23.6°C 96% 5.6 mph ENE9.0 kmh ENE 9.8 mph15.8 kmh 29.32 in992.9 mb 0.00 in0.0 mm 0.00 in0.0 mm 0.14 in3.6 mm
05:20 PM 75.7°F24.3°C 74.5°F23.6°C 96% 4.9 mph NE7.9 kmh NE 9.8 mph15.8 kmh 29.32 in992.9 mb 0.00 in0.0 mm 0.00 in0.0 mm 0.14 in3.6 mm
05:25 PM 75.7°F24.3°C 74.5°F23.6°C 96% 8.4 mph NE13.5 kmh NE 19.9 mph32.0 kmh 29.33 in993.2 mb 0.00 in0.0 mm 0.00 in0.0 mm 0.14 in3.6 mm
05:30 PM 75.6°F24.2°C 74.4°F23.6°C 96% 6.9 mph NE11.1 kmh NE 12.3 mph19.8 kmh 29.32 in992.9 mb 0.00 in0.0 mm 0.00 in0.0 mm 0.14 in3.6 mm
05:35 PM 75.6°F24.2°C 74.4°F23.6°C 96% 4.7 mph NNE7.6 kmh NNE 9.8 mph15.8 kmh 29.32 in992.9 mb 0.00 in0.0 mm 0.00 in0.0 mm 0.14 in3.6 mm
05:40 PM 75.6°F24.2°C 74.4°F23.6°C 96% 5.2 mph N8.4 kmh N 9.8 mph15.8 kmh 29.32 in992.9 mb 0.00 in0.0 mm 0.00 in0.0 mm 0.14 in3.6 mm
05:45 PM 75.6°F24.2°C 74.4°F23.6°C 96% 1.8 mph NNE2.9 kmh NNE 4.9 mph7.9 kmh 29.31 in992.6 mb 0.00 in0.0 mm 0.00 in0.0 mm 0.14 in3.6 mm
05:50 PM 75.7°F24.3°C 74.5°F23.6°C 96% 4.2 mph N6.8 kmh N 9.8 mph15.8 kmh 29.32 in992.9 mb 0.00 in0.0 mm 0.00 in0.0 mm 0.14 in3.6 mm
05:55 PM 75.7°F24.3°C 74.5°F23.6°C 96% 4.5 mph NE7.2 kmh NE 9.8 mph15.8 kmh 29.32 in992.9 mb 0.00 in0.0 mm 0.00 in0.0 mm 0.14 in3.6 mm
06:00 PM 75.7°F24.3°C 74.5°F23.6°C 96% 4.5 mph N7.2 kmh N 7.4 mph11.9 kmh 29.32 in992.9 mb 0.00 in0.0 mm 0.00 in0.0 mm 0.14 in3.6 mm
06:05 PM 75.6°F24.2°C 74.4°F23.6°C 96% 4.7 mph NE7.6 kmh NE 9.8 mph15.8 kmh 29.32 in992.9 mb 0.00 in0.0 mm 0.00 in0.0 mm 0.14 in3.6 mm
06:10 PM 75.4°F24.1°C 74.2°F23.4°C 96% 5.5 mph NNE8.9 kmh NNE 12.3 mph19.8 kmh 29.32 in992.9 mb 0.00 in0.0 mm 0.00 in0.0 mm 0.14 in3.6 mm
06:15 PM 75.4°F24.1°C 73.9°F23.3°C 95% 4.9 mph NE7.9 kmh NE 12.3 mph19.8 kmh 29.32 in992.9 mb 0.00 in0.0 mm 0.00 in0.0 mm 0.14 in3.6 mm
06:20 PM 75.4°F24.1°C 73.9°F23.3°C 95% 2.9 mph NNE4.7 kmh NNE 7.4 mph11.9 kmh 29.32 in992.9 mb 0.00 in0.0 mm 0.00 in0.0 mm 0.14 in3.6 mm
06:25 PM 75.4°F24.1°C 73.9°F23.3°C 95% 3.5 mph NNE5.6 kmh NNE 7.4 mph11.9 kmh 29.32 in992.9 mb 0.00 in0.0 mm 0.00 in0.0 mm 0.14 in3.6 mm
06:30 PM 75.6°F24.2°C 74.1°F23.4°C 95% 3.1 mph NE5.0 kmh NE 9.8 mph15.8 kmh 29.32 in992.9 mb 0.00 in0.0 mm 0.00 in0.0 mm 0.14 in3.6 mm
06:35 PM 75.6°F24.2°C 74.1°F23.4°C 95% 5.5 mph NE8.9 kmh NE 9.8 mph15.8 kmh 29.32 in992.9 mb 0.00 in0.0 mm 0.00 in0.0 mm 0.14 in3.6 mm
06:40 PM 75.6°F24.2°C 74.1°F23.4°C 95% 3.1 mph NE5.0 kmh NE 7.4 mph11.9 kmh 29.32 in992.9 mb 0.00 in0.0 mm 0.00 in0.0 mm 0.14 in3.6 mm
06:45 PM 75.5°F24.2°C 73.9°F23.3°C 95% 5.3 mph N8.5 kmh N 12.3 mph19.8 kmh 29.31 in992.6 mb 0.00 in0.0 mm 0.00 in0.0 mm 0.14 in3.6 mm
06:50 PM 75.4°F24.1°C 74.2°F23.4°C 96% 6.3 mph N10.1 kmh N 12.3 mph19.8 kmh 29.31 in992.6 mb 0.00 in0.0 mm 0.00 in0.0 mm 0.14 in3.6 mm
06:55 PM 75.4°F24.1°C 74.2°F23.4°C 96% 3.6 mph N5.8 kmh N 7.4 mph11.9 kmh 29.32 in992.9 mb 0.00 in0.0 mm 0.00 in0.0 mm 0.14 in3.6 mm
07:00 PM 75.4°F24.1°C 74.2°F23.4°C 96% 3.3 mph NE5.3 kmh NE 9.8 mph15.8 kmh 29.32 in992.9 mb 0.00 in0.0 mm 0.00 in0.0 mm 0.14 in3.6 mm
07:05 PM 75.4°F24.1°C 74.2°F23.4°C 96% 6.2 mph N10.0 kmh N 15.0 mph24.1 kmh 29.31 in992.6 mb 0.00 in0.0 mm 0.00 in0.0 mm 0.14 in3.6 mm
07:10 PM 75.2°F24.0°C 74.0°F23.3°C 96% 6.4 mph N10.3 kmh N 15.0 mph24.1 kmh 29.32 in992.9 mb 0.00 in0.0 mm 0.00 in0.0 mm 0.14 in3.6 mm
07:15 PM 75.2°F24.0°C 74.0°F23.3°C 96% 5.4 mph ENE8.7 kmh ENE 15.0 mph24.1 kmh 29.32 in992.9 mb 0.00 in0.0 mm 0.00 in0.0 mm 0.14 in3.6 mm
07:20 PM 75.2°F24.0°C 74.0°F23.3°C 96% 4.6 mph NE7.4 kmh NE 9.8 mph15.8 kmh 29.32 in992.9 mb 0.00 in0.0 mm 0.00 in0.0 mm 0.14 in3.6 mm
07:25 PM 75.2°F24.0°C 74.0°F23.3°C 96% 5.8 mph NE9.3 kmh NE 9.8 mph15.8 kmh 29.32 in992.9 mb 0.00 in0.0 mm 0.00 in0.0 mm 0.14 in3.6 mm
07:30 PM 75.2°F24.0°C 74.0°F23.3°C 96% 5.0 mph NNE8.0 kmh NNE 9.8 mph15.8 kmh 29.32 in992.9 mb 0.00 in0.0 mm 0.00 in0.0 mm 0.14 in3.6 mm
07:35 PM 75.2°F24.0°C 73.9°F23.3°C 96% 5.6 mph NE9.0 kmh NE 12.3 mph19.8 kmh 29.32 in992.9 mb 0.00 in0.0 mm 0.00 in0.0 mm 0.14 in3.6 mm
07:40 PM 75.2°F24.0°C 73.7°F23.2°C 95% 4.7 mph NNE7.6 kmh NNE 12.3 mph19.8 kmh 29.31 in992.6 mb 0.00 in0.0 mm 0.00 in0.0 mm 0.14 in3.6 mm
07:45 PM 75.2°F24.0°C 73.7°F23.2°C 95% 7.3 mph NE11.7 kmh NE 15.0 mph24.1 kmh 29.32 in992.9 mb 0.00 in0.0 mm 0.00 in0.0 mm 0.14 in3.6 mm
07:50 PM 75.4°F24.1°C 73.9°F23.3°C 95% 6.9 mph NNE11.1 kmh NNE 12.3 mph19.8 kmh 29.33 in993.2 mb 0.00 in0.0 mm 0.00 in0.0 mm 0.14 in3.6 mm
07:55 PM 75.4°F24.1°C 73.9°F23.3°C 95% 7.3 mph NNE11.7 kmh NNE 15.0 mph24.1 kmh 29.32 in992.9 mb 0.00 in0.0 mm 0.00 in0.0 mm 0.14 in3.6 mm
08:00 PM 75.4°F24.1°C 73.9°F23.3°C 95% 4.7 mph E7.6 kmh E 12.3 mph19.8 kmh 29.32 in992.9 mb 0.00 in0.0 mm 0.00 in0.0 mm 0.14 in3.6 mm
08:05 PM 75.4°F24.1°C 73.9°F23.3°C 95% 5.6 mph NE9.0 kmh NE 15.0 mph24.1 kmh 29.33 in993.2 mb 0.00 in0.0 mm 0.00 in0.0 mm 0.14 in3.6 mm
08:10 PM 75.7°F24.3°C 74.2°F23.4°C 95% 4.4 mph NNE7.1 kmh NNE 7.4 mph11.9 kmh 29.33 in993.2 mb 0.00 in0.0 mm 0.00 in0.0 mm 0.14 in3.6 mm
08:15 PM 75.7°F24.3°C 74.2°F23.4°C 95% 4.4 mph N7.1 kmh N 7.4 mph11.9 kmh 29.34 in993.6 mb 0.00 in0.0 mm 0.00 in0.0 mm 0.14 in3.6 mm
08:20 PM 75.7°F24.3°C 74.2°F23.4°C 95% 7.2 mph NE11.6 kmh NE 12.3 mph19.8 kmh 29.34 in993.6 mb 0.00 in0.0 mm 0.00 in0.0 mm 0.14 in3.6 mm
08:25 PM 75.7°F24.3°C 74.1°F23.4°C 95% 4.2 mph NNE6.8 kmh NNE 12.3 mph19.8 kmh 29.34 in993.6 mb 0.00 in0.0 mm 0.00 in0.0 mm 0.14 in3.6 mm
08:30 PM 75.6°F24.2°C 73.7°F23.2°C 94% 5.2 mph ENE8.4 kmh ENE 12.3 mph19.8 kmh 29.34 in993.6 mb 0.00 in0.0 mm 0.00 in0.0 mm 0.14 in3.6 mm
08:35 PM 75.6°F24.2°C 73.7°F23.2°C 94% 5.1 mph NE8.2 kmh NE 15.0 mph24.1 kmh 29.34 in993.6 mb 0.00 in0.0 mm 0.00 in0.0 mm 0.14 in3.6 mm
08:40 PM 75.6°F24.2°C 73.7°F23.2°C 94% 4.2 mph E6.8 kmh E 7.4 mph11.9 kmh 29.34 in993.6 mb 0.00 in0.0 mm 0.00 in0.0 mm 0.14 in3.6 mm
08:45 PM 75.6°F24.2°C 73.7°F23.2°C 94% 5.2 mph ENE8.4 kmh ENE 12.3 mph19.8 kmh 29.34 in993.6 mb 0.00 in0.0 mm 0.00 in0.0 mm 0.14 in3.6 mm
08:50 PM 75.6°F24.2°C 73.7°F23.2°C 94% 5.8 mph NE9.3 kmh NE 9.8 mph15.8 kmh 29.35 in993.9 mb 0.00 in0.0 mm 0.00 in0.0 mm 0.14 in3.6 mm
08:55 PM 75.6°F24.2°C 73.7°F23.2°C 94% 3.3 mph NE5.3 kmh NE 7.4 mph11.9 kmh 29.35 in993.9 mb 0.00 in0.0 mm 0.00 in0.0 mm 0.14 in3.6 mm
09:00 PM 75.6°F24.2°C 74.1°F23.4°C 95% 3.6 mph E5.8 kmh E 9.8 mph15.8 kmh 29.34 in993.6 mb 0.00 in0.0 mm 0.00 in0.0 mm 0.14 in3.6 mm
09:05 PM 75.6°F24.2°C 74.1°F23.4°C 95% 4.9 mph NE7.9 kmh NE 15.0 mph24.1 kmh 29.34 in993.6 mb 0.00 in0.0 mm 0.00 in0.0 mm 0.14 in3.6 mm
09:10 PM 75.7°F24.3°C 74.1°F23.4°C 95% 6.8 mph NNE10.9 kmh NNE 9.8 mph15.8 kmh 29.35 in993.9 mb 0.00 in0.0 mm 0.00 in0.0 mm 0.14 in3.6 mm
09:15 PM 75.7°F24.3°C 74.2°F23.4°C 95% 4.0 mph NE6.4 kmh NE 7.4 mph11.9 kmh 29.35 in993.9 mb 0.00 in0.0 mm 0.00 in0.0 mm 0.14 in3.6 mm
09:20 PM 75.7°F24.3°C 74.2°F23.4°C 95% 5.1 mph NE8.2 kmh NE 15.0 mph24.1 kmh 29.35 in993.9 mb 0.00 in0.0 mm 0.00 in0.0 mm 0.14 in3.6 mm
09:25 PM 75.7°F24.3°C 74.2°F23.4°C 95% 6.7 mph ENE10.8 kmh ENE 9.8 mph15.8 kmh 29.34 in993.6 mb 0.00 in0.0 mm 0.00 in0.0 mm 0.14 in3.6 mm
09:30 PM 75.7°F24.3°C 74.2°F23.4°C 95% 4.7 mph NE7.6 kmh NE 9.8 mph15.8 kmh 29.35 in993.9 mb 0.00 in0.0 mm 0.00 in0.0 mm 0.14 in3.6 mm
09:35 PM 75.7°F24.3°C 74.2°F23.4°C 95% 4.6 mph NE7.4 kmh NE 7.4 mph11.9 kmh 29.35 in993.9 mb 0.00 in0.0 mm 0.00 in0.0 mm 0.14 in3.6 mm
09:40 PM 75.7°F24.3°C 74.2°F23.4°C 95% 3.8 mph NE6.1 kmh NE 7.4 mph11.9 kmh 29.35 in993.9 mb 0.00 in0.0 mm 0.00 in0.0 mm 0.14 in3.6 mm
09:45 PM 75.7°F24.3°C 74.1°F23.4°C 95% 4.6 mph N7.4 kmh N 12.3 mph19.8 kmh 29.35 in993.9 mb 0.00 in0.0 mm 0.00 in0.0 mm 0.14 in3.6 mm
09:50 PM 75.6°F24.2°C 74.1°F23.4°C 95% 5.9 mph ENE9.5 kmh ENE 12.3 mph19.8 kmh 29.34 in993.6 mb 0.00 in0.0 mm 0.00 in0.0 mm 0.14 in3.6 mm
09:55 PM 75.6°F24.2°C 74.1°F23.4°C 95% 6.6 mph NE10.6 kmh NE 12.3 mph19.8 kmh 29.35 in993.9 mb 0.00 in0.0 mm 0.00 in0.0 mm 0.14 in3.6 mm
10:00 PM 75.6°F24.2°C 74.1°F23.4°C 95% 3.3 mph NE5.3 kmh NE 7.4 mph11.9 kmh 29.34 in993.6 mb 0.00 in0.0 mm 0.00 in0.0 mm 0.14 in3.6 mm
10:05 PM 75.6°F24.2°C 74.1°F23.4°C 95% 4.4 mph NE7.1 kmh NE 7.4 mph11.9 kmh 29.34 in993.6 mb 0.00 in0.0 mm 0.00 in0.0 mm 0.14 in3.6 mm
10:10 PM 75.5°F24.2°C 74.0°F23.3°C 95% 4.5 mph ESE7.2 kmh ESE 7.4 mph11.9 kmh 29.34 in993.6 mb 0.00 in0.0 mm 0.00 in0.0 mm 0.14 in3.6 mm
10:15 PM 75.4°F24.1°C 73.9°F23.3°C 95% 4.4 mph ENE7.1 kmh ENE 9.8 mph15.8 kmh 29.34 in993.6 mb 0.00 in0.0 mm 0.00 in0.0 mm 0.14 in3.6 mm
10:20 PM 75.4°F24.1°C 73.9°F23.3°C 95% 4.8 mph NE7.7 kmh NE 12.3 mph19.8 kmh 29.34 in993.6 mb 0.00 in0.0 mm 0.00 in0.0 mm 0.14 in3.6 mm
10:25 PM 75.4°F24.1°C 73.9°F23.3°C 95% 6.6 mph NNE10.6 kmh NNE 15.0 mph24.1 kmh 29.34 in993.6 mb 0.00 in0.0 mm 0.00 in0.0 mm 0.14 in3.6 mm
10:30 PM 75.4°F24.1°C 73.9°F23.3°C 95% 2.5 mph NE4.0 kmh NE 4.9 mph7.9 kmh 29.34 in993.6 mb 0.00 in0.0 mm 0.00 in0.0 mm 0.14 in3.6 mm
10:35 PM 75.4°F24.1°C 73.9°F23.3°C 95% 4.6 mph NE7.4 kmh NE 9.8 mph15.8 kmh 29.34 in993.6 mb 0.00 in0.0 mm 0.00 in0.0 mm 0.14 in3.6 mm
10:40 PM 75.4°F24.1°C 73.9°F23.3°C 95% 3.1 mph NNE5.0 kmh NNE 7.4 mph11.9 kmh 29.34 in993.6 mb 0.00 in0.0 mm 0.00 in0.0 mm 0.14 in3.6 mm
10:45 PM 75.4°F24.1°C 73.9°F23.3°C 95% 1.8 mph N2.9 kmh N 4.9 mph7.9 kmh 29.33 in993.2 mb 0.00 in0.0 mm 0.00 in0.0 mm 0.14 in3.6 mm
10:50 PM 75.4°F24.1°C 73.9°F23.3°C 95% 2.3 mph NE3.7 kmh NE 4.9 mph7.9 kmh 29.33 in993.2 mb 0.00 in0.0 mm 0.00 in0.0 mm 0.14 in3.6 mm
10:55 PM 75.4°F24.1°C 73.9°F23.3°C 95% 3.3 mph NE5.3 kmh NE 9.8 mph15.8 kmh 29.33 in993.2 mb 0.00 in0.0 mm 0.00 in0.0 mm 0.14 in3.6 mm
11:00 PM 75.4°F24.1°C 74.2°F23.4°C 96% 3.7 mph NE6.0 kmh NE 9.8 mph15.8 kmh 29.33 in993.2 mb 0.00 in0.0 mm 0.00 in0.0 mm 0.13 in3.3 mm
11:05 PM 75.4°F24.1°C 74.2°F23.4°C 96% 3.9 mph NE6.3 kmh NE 7.4 mph11.9 kmh 29.32 in992.9 mb 0.00 in0.0 mm 0.00 in0.0 mm 0.13 in3.3 mm
11:10 PM 75.4°F24.1°C 74.2°F23.4°C 96% 3.1 mph NE5.0 kmh NE 7.4 mph11.9 kmh 29.32 in992.9 mb 0.00 in0.0 mm 0.00 in0.0 mm 0.13 in3.3 mm
11:15 PM 75.4°F24.1°C 74.2°F23.4°C 96% 5.7 mph E9.2 kmh E 9.8 mph15.8 kmh 29.33 in993.2 mb 0.00 in0.0 mm 0.00 in0.0 mm 0.13 in3.3 mm
11:20 PM 75.3°F24.1°C 74.1°F23.4°C 96% 6.1 mph NE9.8 kmh NE 9.8 mph15.8 kmh 29.33 in993.2 mb 0.00 in0.0 mm 0.00 in0.0 mm 0.13 in3.3 mm
11:25 PM 75.2°F24.0°C 74.0°F23.3°C 96% 4.1 mph N6.6 kmh N 9.8 mph15.8 kmh 29.33 in993.2 mb 0.00 in0.0 mm 0.00 in0.0 mm 0.13 in3.3 mm
11:30 PM 75.2°F24.0°C 74.0°F23.3°C 96% 5.3 mph NE8.5 kmh NE 15.0 mph24.1 kmh 29.32 in992.9 mb 0.00 in0.0 mm 0.00 in0.0 mm 0.13 in3.3 mm
11:35 PM 75.2°F24.0°C 74.0°F23.3°C 96% 6.5 mph NE10.5 kmh NE 12.3 mph19.8 kmh 29.32 in992.9 mb 0.00 in0.0 mm 0.00 in0.0 mm 0.13 in3.3 mm
11:40 PM 75.2°F24.0°C 74.0°F23.3°C 96% 4.2 mph NE6.8 kmh NE 9.8 mph15.8 kmh 29.32 in992.9 mb 0.00 in0.0 mm 0.00 in0.0 mm 0.13 in3.3 mm
11:45 PM 75.2°F24.0°C 74.0°F23.3°C 96% 5.6 mph NE9.0 kmh NE 9.8 mph15.8 kmh 29.32 in992.9 mb 0.00 in0.0 mm 0.00 in0.0 mm 0.13 in3.3 mm
11:50 PM 75.2°F24.0°C 74.0°F23.3°C 96% 4.3 mph NE6.9 kmh NE 7.4 mph11.9 kmh 29.32 in992.9 mb 0.00 in0.0 mm 0.00 in0.0 mm 0.13 in3.3 mm
11:55 PM 75.2°F24.0°C 74.0°F23.3°C 96% 5.8 mph NE9.3 kmh NE 12.3 mph19.8 kmh 29.32 in992.9 mb 0.00 in0.0 mm 0.00 in0.0 mm 0.13 in3.3 mm